sensor_id;sensor_type;location;lat;lon;timestamp;P1;durP1;ratioP1;P2;durP2;ratioP2
54921;SDS011;40824;45.116;21.296;2023-12-20T00:01:50;9.95;;;6.25;;
54921;SDS011;40824;45.116;21.296;2023-12-20T00:04:16;10.95;;;7.20;;
54921;SDS011;40824;45.116;21.296;2023-12-20T00:06:42;13.48;;;7.95;;
54921;SDS011;40824;45.116;21.296;2023-12-20T00:09:09;11.10;;;7.75;;
54921;SDS011;40824;45.116;21.296;2023-12-20T00:11:35;11.75;;;7.18;;
54921;SDS011;40824;45.116;21.296;2023-12-20T00:14:01;14.52;;;9.93;;
54921;SDS011;40824;45.116;21.296;2023-12-20T00:16:27;26.02;;;15.55;;
54921;SDS011;40824;45.116;21.296;2023-12-20T00:18:53;23.92;;;15.57;;
54921;SDS011;40824;45.116;21.296;2023-12-20T00:21:19;25.90;;;19.13;;
54921;SDS011;40824;45.116;21.296;2023-12-20T00:23:45;29.20;;;23.30;;
54921;SDS011;40824;45.116;21.296;2023-12-20T00:26:11;27.15;;;20.35;;
54921;SDS011;40824;45.116;21.296;2023-12-20T00:28:37;24.45;;;17.80;;
54921;SDS011;40824;45.116;21.296;2023-12-20T00:31:03;25.17;;;17.92;;
54921;SDS011;40824;45.116;21.296;2023-12-20T00:33:29;25.20;;;18.98;;
54921;SDS011;40824;45.116;21.296;2023-12-20T00:35:55;25.40;;;19.45;;
54921;SDS011;40824;45.116;21.296;2023-12-20T00:38:22;26.58;;;18.02;;
54921;SDS011;40824;45.116;21.296;2023-12-20T00:40:49;20.73;;;15.05;;
54921;SDS011;40824;45.116;21.296;2023-12-20T00:43:15;23.08;;;15.75;;
54921;SDS011;40824;45.116;21.296;2023-12-20T00:45:41;23.52;;;16.00;;
54921;SDS011;40824;45.116;21.296;2023-12-20T00:48:07;20.58;;;14.77;;
54921;SDS011;40824;45.116;21.296;2023-12-20T00:50:33;21.23;;;14.52;;
54921;SDS011;40824;45.116;21.296;2023-12-20T00:52:59;21.88;;;15.40;;
54921;SDS011;40824;45.116;21.296;2023-12-20T00:55:25;26.42;;;16.52;;
54921;SDS011;40824;45.116;21.296;2023-12-20T00:57:51;25.27;;;17.02;;
54921;SDS011;40824;45.116;21.296;2023-12-20T01:00:19;28.75;;;17.95;;
54921;SDS011;40824;45.116;21.296;2023-12-20T01:02:45;34.58;;;21.02;;
54921;SDS011;40824;45.116;21.296;2023-12-20T01:05:16;41.35;;;21.27;;
54921;SDS011;40824;45.116;21.296;2023-12-20T01:07:42;37.72;;;20.98;;
54921;SDS011;40824;45.116;21.296;2023-12-20T01:10:08;29.17;;;19.15;;
54921;SDS011;40824;45.116;21.296;2023-12-20T01:12:35;34.60;;;21.20;;
54921;SDS011;40824;45.116;21.296;2023-12-20T01:15:02;33.35;;;19.52;;
54921;SDS011;40824;45.116;21.296;2023-12-20T01:17:28;26.92;;;14.05;;
54921;SDS011;40824;45.116;21.296;2023-12-20T01:19:54;26.00;;;16.67;;
54921;SDS011;40824;45.116;21.296;2023-12-20T01:22:20;29.90;;;17.80;;
54921;SDS011;40824;45.116;21.296;2023-12-20T01:24:46;26.65;;;15.60;;
54921;SDS011;40824;45.116;21.296;2023-12-20T01:27:12;21.65;;;12.40;;
54921;SDS011;40824;45.116;21.296;2023-12-20T01:29:38;15.20;;;10.77;;
54921;SDS011;40824;45.116;21.296;2023-12-20T01:32:04;16.33;;;10.77;;
54921;SDS011;40824;45.116;21.296;2023-12-20T01:34:30;20.17;;;12.55;;
54921;SDS011;40824;45.116;21.296;2023-12-20T01:36:57;19.50;;;12.05;;
54921;SDS011;40824;45.116;21.296;2023-12-20T01:39:23;15.63;;;10.18;;
54921;SDS011;40824;45.116;21.296;2023-12-20T01:41:49;12.38;;;8.43;;
54921;SDS011;40824;45.116;21.296;2023-12-20T01:44:15;10.40;;;6.97;;
54921;SDS011;40824;45.116;21.296;2023-12-20T01:46:41;10.57;;;6.18;;
54921;SDS011;40824;45.116;21.296;2023-12-20T01:49:07;10.80;;;6.57;;
54921;SDS011;40824;45.116;21.296;2023-12-20T01:51:34;9.30;;;5.90;;
54921;SDS011;40824;45.116;21.296;2023-12-20T01:54:00;6.47;;;4.60;;
54921;SDS011;40824;45.116;21.296;2023-12-20T01:56:26;9.07;;;4.65;;
54921;SDS011;40824;45.116;21.296;2023-12-20T01:58:54;7.03;;;4.90;;
54921;SDS011;40824;45.116;21.296;2023-12-20T02:01:21;8.77;;;5.47;;
54921;SDS011;40824;45.116;21.296;2023-12-20T02:03:47;8.32;;;6.13;;
54921;SDS011;40824;45.116;21.296;2023-12-20T02:06:14;7.50;;;4.90;;
54921;SDS011;40824;45.116;21.296;2023-12-20T02:08:40;8.63;;;5.50;;
54921;SDS011;40824;45.116;21.296;2023-12-20T02:11:06;8.25;;;5.25;;
54921;SDS011;40824;45.116;21.296;2023-12-20T02:13:33;7.85;;;5.40;;
54921;SDS011;40824;45.116;21.296;2023-12-20T02:15:59;7.68;;;5.55;;
54921;SDS011;40824;45.116;21.296;2023-12-20T02:18:26;7.18;;;5.03;;
54921;SDS011;40824;45.116;21.296;2023-12-20T02:20:52;8.38;;;6.10;;
54921;SDS011;40824;45.116;21.296;2023-12-20T02:23:18;9.20;;;5.95;;
54921;SDS011;40824;45.116;21.296;2023-12-20T02:25:45;7.70;;;5.50;;
54921;SDS011;40824;45.116;21.296;2023-12-20T02:28:11;8.98;;;5.93;;
54921;SDS011;40824;45.116;21.296;2023-12-20T02:30:37;7.80;;;5.40;;
54921;SDS011;40824;45.116;21.296;2023-12-20T02:33:04;7.57;;;5.63;;
54921;SDS011;40824;45.116;21.296;2023-12-20T02:35:33;8.57;;;5.88;;
54921;SDS011;40824;45.116;21.296;2023-12-20T02:38:00;10.13;;;5.63;;
54921;SDS011;40824;45.116;21.296;2023-12-20T02:40:26;8.48;;;6.03;;
54921;SDS011;40824;45.116;21.296;2023-12-20T02:42:52;8.88;;;5.53;;
54921;SDS011;40824;45.116;21.296;2023-12-20T02:45:18;8.48;;;5.75;;
54921;SDS011;40824;45.116;21.296;2023-12-20T02:47:44;8.07;;;5.65;;
54921;SDS011;40824;45.116;21.296;2023-12-20T02:50:10;7.97;;;5.65;;
54921;SDS011;40824;45.116;21.296;2023-12-20T02:52:36;9.30;;;6.00;;
54921;SDS011;40824;45.116;21.296;2023-12-20T02:55:02;9.75;;;5.80;;
54921;SDS011;40824;45.116;21.296;2023-12-20T02:57:28;8.07;;;5.28;;
54921;SDS011;40824;45.116;21.296;2023-12-20T02:59:54;8.40;;;5.88;;
54921;SDS011;40824;45.116;21.296;2023-12-20T03:02:20;9.23;;;6.07;;
54921;SDS011;40824;45.116;21.296;2023-12-20T03:04:46;9.13;;;6.00;;
54921;SDS011;40824;45.116;21.296;2023-12-20T03:07:13;10.88;;;6.18;;
54921;SDS011;40824;45.116;21.296;2023-12-20T03:09:39;9.70;;;6.07;;
54921;SDS011;40824;45.116;21.296;2023-12-20T03:12:05;8.98;;;6.10;;
54921;SDS011;40824;45.116;21.296;2023-12-20T03:14:31;9.73;;;6.28;;
54921;SDS011;40824;45.116;21.296;2023-12-20T03:16:57;8.82;;;5.95;;
54921;SDS011;40824;45.116;21.296;2023-12-20T03:19:23;12.48;;;6.38;;
54921;SDS011;40824;45.116;21.296;2023-12-20T03:21:50;11.00;;;7.13;;
54921;SDS011;40824;45.116;21.296;2023-12-20T03:24:18;9.57;;;7.00;;
54921;SDS011;40824;45.116;21.296;2023-12-20T03:26:44;9.68;;;6.78;;
54921;SDS011;40824;45.116;21.296;2023-12-20T03:29:10;8.38;;;5.93;;
54921;SDS011;40824;45.116;21.296;2023-12-20T03:31:36;8.30;;;6.03;;
54921;SDS011;40824;45.116;21.296;2023-12-20T03:34:02;9.57;;;5.72;;
54921;SDS011;40824;45.116;21.296;2023-12-20T03:36:28;9.27;;;5.30;;
54921;SDS011;40824;45.116;21.296;2023-12-20T03:38:54;7.80;;;5.03;;
54921;SDS011;40824;45.116;21.296;2023-12-20T03:41:20;7.55;;;4.97;;
54921;SDS011;40824;45.116;21.296;2023-12-20T03:43:46;12.68;;;6.60;;
54921;SDS011;40824;45.116;21.296;2023-12-20T03:46:12;11.85;;;6.57;;
54921;SDS011;40824;45.116;21.296;2023-12-20T03:48:38;12.88;;;7.75;;
54921;SDS011;40824;45.116;21.296;2023-12-20T03:51:05;12.68;;;7.50;;
54921;SDS011;40824;45.116;21.296;2023-12-20T03:53:31;10.93;;;6.93;;
54921;SDS011;40824;45.116;21.296;2023-12-20T03:55:57;9.45;;;6.30;;
54921;SDS011;40824;45.116;21.296;2023-12-20T03:58:23;10.73;;;6.10;;
54921;SDS011;40824;45.116;21.296;2023-12-20T04:00:50;9.05;;;6.05;;
54921;SDS011;40824;45.116;21.296;2023-12-20T04:03:16;9.80;;;6.57;;
54921;SDS011;40824;45.116;21.296;2023-12-20T04:05:43;9.55;;;6.50;;
54921;SDS011;40824;45.116;21.296;2023-12-20T04:08:09;13.68;;;7.15;;
54921;SDS011;40824;45.116;21.296;2023-12-20T04:10:35;9.65;;;6.70;;
54921;SDS011;40824;45.116;21.296;2023-12-20T04:13:02;12.82;;;7.25;;
54921;SDS011;40824;45.116;21.296;2023-12-20T04:15:28;14.45;;;8.10;;
54921;SDS011;40824;45.116;21.296;2023-12-20T04:17:54;15.02;;;9.15;;
54921;SDS011;40824;45.116;21.296;2023-12-20T04:20:20;16.75;;;10.30;;
54921;SDS011;40824;45.116;21.296;2023-12-20T04:22:46;19.67;;;11.65;;
54921;SDS011;40824;45.116;21.296;2023-12-20T04:25:12;22.48;;;13.20;;
54921;SDS011;40824;45.116;21.296;2023-12-20T04:27:39;21.13;;;13.13;;
54921;SDS011;40824;45.116;21.296;2023-12-20T04:30:05;21.95;;;13.93;;
54921;SDS011;40824;45.116;21.296;2023-12-20T04:32:31;20.58;;;12.68;;
54921;SDS011;40824;45.116;21.296;2023-12-20T04:34:57;21.40;;;13.35;;
54921;SDS011;40824;45.116;21.296;2023-12-20T04:37:24;21.50;;;14.05;;
54921;SDS011;40824;45.116;21.296;2023-12-20T04:39:50;19.40;;;12.70;;
54921;SDS011;40824;45.116;21.296;2023-12-20T04:42:16;23.83;;;14.05;;
54921;SDS011;40824;45.116;21.296;2023-12-20T04:44:42;21.63;;;14.63;;
54921;SDS011;40824;45.116;21.296;2023-12-20T04:47:09;26.50;;;14.48;;
54921;SDS011;40824;45.116;21.296;2023-12-20T04:49:35;24.15;;;15.35;;
54921;SDS011;40824;45.116;21.296;2023-12-20T04:52:01;22.00;;;14.32;;
54921;SDS011;40824;45.116;21.296;2023-12-20T04:54:27;21.88;;;12.70;;
54921;SDS011;40824;45.116;21.296;2023-12-20T04:56:53;22.70;;;14.52;;
54921;SDS011;40824;45.116;21.296;2023-12-20T04:59:19;23.58;;;12.65;;
54921;SDS011;40824;45.116;21.296;2023-12-20T05:01:45;15.55;;;9.63;;
54921;SDS011;40824;45.116;21.296;2023-12-20T05:04:11;15.68;;;9.77;;
54921;SDS011;40824;45.116;21.296;2023-12-20T05:06:37;13.55;;;9.02;;
54921;SDS011;40824;45.116;21.296;2023-12-20T05:09:03;9.65;;;6.25;;
54921;SDS011;40824;45.116;21.296;2023-12-20T05:11:29;10.50;;;6.70;;
54921;SDS011;40824;45.116;21.296;2023-12-20T05:13:55;9.80;;;6.22;;
54921;SDS011;40824;45.116;21.296;2023-12-20T05:16:22;8.00;;;5.95;;
54921;SDS011;40824;45.116;21.296;2023-12-20T05:18:48;8.77;;;6.28;;
54921;SDS011;40824;45.116;21.296;2023-12-20T05:21:15;9.75;;;6.40;;
54921;SDS011;40824;45.116;21.296;2023-12-20T05:23:41;9.60;;;6.57;;
54921;SDS011;40824;45.116;21.296;2023-12-20T05:26:07;10.68;;;6.82;;
54921;SDS011;40824;45.116;21.296;2023-12-20T05:28:33;10.52;;;7.50;;
54921;SDS011;40824;45.116;21.296;2023-12-20T05:30:59;12.10;;;8.30;;
54921;SDS011;40824;45.116;21.296;2023-12-20T05:33:25;14.07;;;7.85;;
54921;SDS011;40824;45.116;21.296;2023-12-20T05:35:51;17.50;;;11.23;;
54921;SDS011;40824;45.116;21.296;2023-12-20T05:38:18;15.85;;;10.20;;
54921;SDS011;40824;45.116;21.296;2023-12-20T05:40:44;15.05;;;9.70;;
54921;SDS011;40824;45.116;21.296;2023-12-20T05:43:10;17.88;;;10.18;;
54921;SDS011;40824;45.116;21.296;2023-12-20T05:45:36;16.55;;;10.48;;
54921;SDS011;40824;45.116;21.296;2023-12-20T05:48:02;14.32;;;11.23;;
54921;SDS011;40824;45.116;21.296;2023-12-20T05:50:28;17.17;;;11.35;;
54921;SDS011;40824;45.116;21.296;2023-12-20T05:52:55;14.18;;;9.07;;
54921;SDS011;40824;45.116;21.296;2023-12-20T05:55:21;15.77;;;9.43;;
54921;SDS011;40824;45.116;21.296;2023-12-20T05:57:47;11.90;;;8.63;;
54921;SDS011;40824;45.116;21.296;2023-12-20T06:00:13;11.63;;;8.73;;
54921;SDS011;40824;45.116;21.296;2023-12-20T06:02:40;14.77;;;8.48;;
54921;SDS011;40824;45.116;21.296;2023-12-20T06:05:06;12.27;;;7.35;;
54921;SDS011;40824;45.116;21.296;2023-12-20T06:07:32;11.02;;;7.35;;
54921;SDS011;40824;45.116;21.296;2023-12-20T06:09:58;11.30;;;7.65;;
54921;SDS011;40824;45.116;21.296;2023-12-20T06:12:25;12.82;;;8.10;;
54921;SDS011;40824;45.116;21.296;2023-12-20T06:14:52;10.43;;;7.30;;
54921;SDS011;40824;45.116;21.296;2023-12-20T06:17:18;13.32;;;7.72;;
54921;SDS011;40824;45.116;21.296;2023-12-20T06:19:44;10.98;;;7.85;;
54921;SDS011;40824;45.116;21.296;2023-12-20T06:22:13;11.15;;;7.30;;
54921;SDS011;40824;45.116;21.296;2023-12-20T06:24:39;15.07;;;7.50;;
54921;SDS011;40824;45.116;21.296;2023-12-20T06:27:05;11.13;;;7.00;;
54921;SDS011;40824;45.116;21.296;2023-12-20T06:29:31;13.40;;;8.00;;
54921;SDS011;40824;45.116;21.296;2023-12-20T06:31:57;11.35;;;7.13;;
54921;SDS011;40824;45.116;21.296;2023-12-20T06:34:23;11.93;;;7.72;;
54921;SDS011;40824;45.116;21.296;2023-12-20T06:36:49;14.80;;;8.95;;
54921;SDS011;40824;45.116;21.296;2023-12-20T06:39:16;11.23;;;7.80;;
54921;SDS011;40824;45.116;21.296;2023-12-20T06:41:42;9.60;;;6.25;;
54921;SDS011;40824;45.116;21.296;2023-12-20T06:44:08;11.10;;;6.68;;
54921;SDS011;40824;45.116;21.296;2023-12-20T06:46:34;10.40;;;6.82;;
54921;SDS011;40824;45.116;21.296;2023-12-20T06:49:00;17.88;;;8.25;;
54921;SDS011;40824;45.116;21.296;2023-12-20T06:51:26;10.00;;;6.28;;
54921;SDS011;40824;45.116;21.296;2023-12-20T06:53:52;7.60;;;5.18;;
54921;SDS011;40824;45.116;21.296;2023-12-20T06:56:19;8.50;;;5.30;;
54921;SDS011;40824;45.116;21.296;2023-12-20T06:58:45;7.07;;;4.35;;
54921;SDS011;40824;45.116;21.296;2023-12-20T07:01:12;7.97;;;4.50;;
54921;SDS011;40824;45.116;21.296;2023-12-20T07:03:38;6.45;;;4.32;;
54921;SDS011;40824;45.116;21.296;2023-12-20T07:06:05;7.57;;;5.03;;
54921;SDS011;40824;45.116;21.296;2023-12-20T07:08:31;7.85;;;5.03;;
54921;SDS011;40824;45.116;21.296;2023-12-20T07:10:57;7.35;;;5.10;;
54921;SDS011;40824;45.116;21.296;2023-12-20T07:13:24;10.30;;;6.03;;
54921;SDS011;40824;45.116;21.296;2023-12-20T07:15:50;7.82;;;5.25;;
54921;SDS011;40824;45.116;21.296;2023-12-20T07:18:16;8.27;;;5.32;;
54921;SDS011;40824;45.116;21.296;2023-12-20T07:20:42;9.43;;;6.30;;
54921;SDS011;40824;45.116;21.296;2023-12-20T07:23:08;9.43;;;6.38;;
54921;SDS011;40824;45.116;21.296;2023-12-20T07:25:34;9.00;;;6.68;;
54921;SDS011;40824;45.116;21.296;2023-12-20T07:28:00;9.13;;;6.30;;
54921;SDS011;40824;45.116;21.296;2023-12-20T07:30:26;10.43;;;6.00;;
54921;SDS011;40824;45.116;21.296;2023-12-20T07:32:53;12.95;;;6.20;;
54921;SDS011;40824;45.116;21.296;2023-12-20T07:35:19;10.00;;;5.60;;
54921;SDS011;40824;45.116;21.296;2023-12-20T07:37:45;8.18;;;5.53;;
54921;SDS011;40824;45.116;21.296;2023-12-20T07:40:11;7.30;;;5.18;;
54921;SDS011;40824;45.116;21.296;2023-12-20T07:42:37;8.23;;;5.85;;
54921;SDS011;40824;45.116;21.296;2023-12-20T07:45:03;8.63;;;6.03;;
54921;SDS011;40824;45.116;21.296;2023-12-20T07:47:30;8.70;;;5.78;;
54921;SDS011;40824;45.116;21.296;2023-12-20T07:49:56;7.95;;;5.03;;
54921;SDS011;40824;45.116;21.296;2023-12-20T07:52:22;8.50;;;5.60;;
54921;SDS011;40824;45.116;21.296;2023-12-20T07:54:48;6.68;;;5.10;;
54921;SDS011;40824;45.116;21.296;2023-12-20T07:57:15;9.55;;;5.88;;
54921;SDS011;40824;45.116;21.296;2023-12-20T07:59:41;9.73;;;6.28;;
54921;SDS011;40824;45.116;21.296;2023-12-20T08:02:09;12.02;;;7.30;;
54921;SDS011;40824;45.116;21.296;2023-12-20T08:04:35;9.88;;;5.97;;
54921;SDS011;40824;45.116;21.296;2023-12-20T08:07:01;9.43;;;5.57;;
54921;SDS011;40824;45.116;21.296;2023-12-20T08:09:27;11.30;;;6.85;;
54921;SDS011;40824;45.116;21.296;2023-12-20T08:11:53;12.82;;;9.65;;
54921;SDS011;40824;45.116;21.296;2023-12-20T08:14:19;48.08;;;35.05;;
54921;SDS011;40824;45.116;21.296;2023-12-20T08:16:45;10.40;;;7.05;;
54921;SDS011;40824;45.116;21.296;2023-12-20T08:19:11;7.88;;;5.55;;
54921;SDS011;40824;45.116;21.296;2023-12-20T08:21:38;9.85;;;5.70;;
54921;SDS011;40824;45.116;21.296;2023-12-20T08:24:05;9.02;;;5.85;;
54921;SDS011;40824;45.116;21.296;2023-12-20T08:26:32;10.25;;;6.47;;
54921;SDS011;40824;45.116;21.296;2023-12-20T08:28:58;11.82;;;6.43;;
54921;SDS011;40824;45.116;21.296;2023-12-20T08:31:27;14.35;;;8.65;;
54921;SDS011;40824;45.116;21.296;2023-12-20T08:33:53;8.73;;;6.00;;
54921;SDS011;40824;45.116;21.296;2023-12-20T08:36:19;14.27;;;8.05;;
54921;SDS011;40824;45.116;21.296;2023-12-20T08:38:47;11.38;;;8.38;;
54921;SDS011;40824;45.116;21.296;2023-12-20T08:41:13;11.05;;;6.65;;
54921;SDS011;40824;45.116;21.296;2023-12-20T08:43:39;15.43;;;7.53;;
54921;SDS011;40824;45.116;21.296;2023-12-20T08:46:06;11.25;;;8.02;;
54921;SDS011;40824;45.116;21.296;2023-12-20T08:48:34;10.95;;;7.53;;
54921;SDS011;40824;45.116;21.296;2023-12-20T08:51:03;11.10;;;7.50;;
54921;SDS011;40824;45.116;21.296;2023-12-20T08:53:29;14.43;;;9.05;;
54921;SDS011;40824;45.116;21.296;2023-12-20T08:55:55;14.05;;;9.80;;
54921;SDS011;40824;45.116;21.296;2023-12-20T08:58:26;14.25;;;8.07;;
54921;SDS011;40824;45.116;21.296;2023-12-20T09:00:52;10.90;;;8.00;;
54921;SDS011;40824;45.116;21.296;2023-12-20T09:03:18;10.40;;;7.40;;
54921;SDS011;40824;45.116;21.296;2023-12-20T09:05:44;15.07;;;9.38;;
54921;SDS011;40824;45.116;21.296;2023-12-20T09:08:10;17.35;;;10.80;;
54921;SDS011;40824;45.116;21.296;2023-12-20T09:10:37;15.80;;;9.75;;
54921;SDS011;40824;45.116;21.296;2023-12-20T09:13:03;12.20;;;7.72;;
54921;SDS011;40824;45.116;21.296;2023-12-20T09:15:29;12.52;;;7.03;;
54921;SDS011;40824;45.116;21.296;2023-12-20T09:17:55;11.95;;;7.18;;
54921;SDS011;40824;45.116;21.296;2023-12-20T09:20:21;11.15;;;7.38;;
54921;SDS011;40824;45.116;21.296;2023-12-20T09:22:48;12.27;;;8.05;;
54921;SDS011;40824;45.116;21.296;2023-12-20T09:25:14;10.13;;;7.28;;
54921;SDS011;40824;45.116;21.296;2023-12-20T09:27:42;11.70;;;7.70;;
54921;SDS011;40824;45.116;21.296;2023-12-20T09:30:08;11.95;;;6.90;;
54921;SDS011;40824;45.116;21.296;2023-12-20T09:32:35;9.98;;;7.03;;
54921;SDS011;40824;45.116;21.296;2023-12-20T09:35:01;11.93;;;7.53;;
54921;SDS011;40824;45.116;21.296;2023-12-20T09:37:28;11.90;;;7.60;;
54921;SDS011;40824;45.116;21.296;2023-12-20T09:39:54;14.15;;;8.85;;
54921;SDS011;40824;45.116;21.296;2023-12-20T09:45:07;16.98;;;9.10;;
54921;SDS011;40824;45.116;21.296;2023-12-20T09:47:34;14.82;;;8.35;;
54921;SDS011;40824;45.116;21.296;2023-12-20T09:50:01;12.13;;;7.05;;
54921;SDS011;40824;45.116;21.296;2023-12-20T09:52:28;13.73;;;7.70;;
54921;SDS011;40824;45.116;21.296;2023-12-20T09:54:54;13.18;;;7.70;;
54921;SDS011;40824;45.116;21.296;2023-12-20T09:57:21;13.52;;;7.75;;
54921;SDS011;40824;45.116;21.296;2023-12-20T09:59:47;12.10;;;7.50;;
54921;SDS011;40824;45.116;21.296;2023-12-20T10:02:13;13.98;;;10.65;;
54921;SDS011;40824;45.116;21.296;2023-12-20T10:04:42;14.15;;;10.65;;
54921;SDS011;40824;45.116;21.296;2023-12-20T10:07:11;11.68;;;8.13;;
54921;SDS011;40824;45.116;21.296;2023-12-20T10:09:37;11.32;;;7.43;;
54921;SDS011;40824;45.116;21.296;2023-12-20T10:12:04;10.10;;;7.28;;
54921;SDS011;40824;45.116;21.296;2023-12-20T10:14:30;12.30;;;7.07;;
54921;SDS011;40824;45.116;21.296;2023-12-20T10:17:04;12.60;;;7.35;;
54921;SDS011;40824;45.116;21.296;2023-12-20T10:19:30;12.35;;;9.15;;
54921;SDS011;40824;45.116;21.296;2023-12-20T10:22:00;14.60;;;8.30;;
54921;SDS011;40824;45.116;21.296;2023-12-20T10:24:29;12.82;;;8.85;;
54921;SDS011;40824;45.116;21.296;2023-12-20T10:27:02;11.30;;;7.47;;
54921;SDS011;40824;45.116;21.296;2023-12-20T10:29:37;11.93;;;7.57;;
54921;SDS011;40824;45.116;21.296;2023-12-20T10:34:49;9.70;;;6.82;;
54921;SDS011;40824;45.116;21.296;2023-12-20T10:37:15;11.88;;;7.30;;
54921;SDS011;40824;45.116;21.296;2023-12-20T10:39:42;12.18;;;7.60;;
54921;SDS011;40824;45.116;21.296;2023-12-20T10:42:11;14.02;;;8.80;;
54921;SDS011;40824;45.116;21.296;2023-12-20T10:44:37;14.32;;;9.52;;
54921;SDS011;40824;45.116;21.296;2023-12-20T10:47:04;16.00;;;9.55;;
54921;SDS011;40824;45.116;21.296;2023-12-20T10:49:31;14.02;;;9.13;;
54921;SDS011;40824;45.116;21.296;2023-12-20T10:51:58;12.82;;;8.27;;
54921;SDS011;40824;45.116;21.296;2023-12-20T10:54:25;15.88;;;8.73;;
54921;SDS011;40824;45.116;21.296;2023-12-20T10:56:51;13.13;;;7.80;;
54921;SDS011;40824;45.116;21.296;2023-12-20T10:59:19;11.90;;;7.40;;
54921;SDS011;40824;45.116;21.296;2023-12-20T11:01:47;9.75;;;7.25;;
54921;SDS011;40824;45.116;21.296;2023-12-20T11:04:15;10.40;;;7.32;;
54921;SDS011;40824;45.116;21.296;2023-12-20T11:06:54;10.93;;;8.00;;
54921;SDS011;40824;45.116;21.296;2023-12-20T11:19:35;13.63;;;9.48;;
54921;SDS011;40824;45.116;21.296;2023-12-20T11:22:04;15.18;;;10.27;;
54921;SDS011;40824;45.116;21.296;2023-12-20T11:24:31;15.93;;;10.95;;
54921;SDS011;40824;45.116;21.296;2023-12-20T11:26:59;17.30;;;11.60;;
54921;SDS011;40824;45.116;21.296;2023-12-20T11:31:56;19.02;;;10.70;;
54921;SDS011;40824;45.116;21.296;2023-12-20T11:34:22;14.00;;;10.90;;
54921;SDS011;40824;45.116;21.296;2023-12-20T11:36:48;18.60;;;11.85;;
54921;SDS011;40824;45.116;21.296;2023-12-20T11:39:18;14.77;;;11.27;;
54921;SDS011;40824;45.116;21.296;2023-12-20T11:41:46;16.83;;;11.90;;
54921;SDS011;40824;45.116;21.296;2023-12-20T11:44:19;20.70;;;13.80;;
54921;SDS011;40824;45.116;21.296;2023-12-20T11:46:45;19.58;;;13.88;;
54921;SDS011;40824;45.116;21.296;2023-12-20T11:49:12;17.75;;;12.13;;
54921;SDS011;40824;45.116;21.296;2023-12-20T11:51:41;22.48;;;13.68;;
54921;SDS011;40824;45.116;21.296;2023-12-20T11:54:07;23.58;;;13.93;;
54921;SDS011;40824;45.116;21.296;2023-12-20T11:56:35;22.40;;;14.23;;
54921;SDS011;40824;45.116;21.296;2023-12-20T11:59:01;19.02;;;14.00;;
54921;SDS011;40824;45.116;21.296;2023-12-20T12:01:27;20.20;;;13.40;;
54921;SDS011;40824;45.116;21.296;2023-12-20T12:04:03;20.35;;;15.05;;
54921;SDS011;40824;45.116;21.296;2023-12-20T12:06:30;20.05;;;13.85;;
54921;SDS011;40824;45.116;21.296;2023-12-20T12:08:56;19.23;;;13.70;;
54921;SDS011;40824;45.116;21.296;2023-12-20T12:11:22;21.02;;;15.00;;
54921;SDS011;40824;45.116;21.296;2023-12-20T12:13:48;21.40;;;15.52;;
54921;SDS011;40824;45.116;21.296;2023-12-20T12:16:17;25.77;;;15.35;;
54921;SDS011;40824;45.116;21.296;2023-12-20T12:18:44;21.50;;;15.10;;
54921;SDS011;40824;45.116;21.296;2023-12-20T12:21:10;28.50;;;18.98;;
54921;SDS011;40824;45.116;21.296;2023-12-20T12:23:36;26.20;;;17.52;;
54921;SDS011;40824;45.116;21.296;2023-12-20T12:26:06;26.20;;;18.25;;
54921;SDS011;40824;45.116;21.296;2023-12-20T12:28:34;22.48;;;15.73;;
54921;SDS011;40824;45.116;21.296;2023-12-20T12:31:00;25.55;;;15.82;;
54921;SDS011;40824;45.116;21.296;2023-12-20T12:33:26;25.50;;;16.70;;
54921;SDS011;40824;45.116;21.296;2023-12-20T12:35:52;21.52;;;14.98;;
54921;SDS011;40824;45.116;21.296;2023-12-20T12:38:22;23.77;;;15.90;;
54921;SDS011;40824;45.116;21.296;2023-12-20T12:40:48;24.55;;;16.98;;
54921;SDS011;40824;45.116;21.296;2023-12-20T12:43:15;24.10;;;17.33;;
54921;SDS011;40824;45.116;21.296;2023-12-20T12:45:47;22.42;;;16.75;;
54921;SDS011;40824;45.116;21.296;2023-12-20T12:48:14;26.98;;;19.10;;
54921;SDS011;40824;45.116;21.296;2023-12-20T12:50:40;31.27;;;20.40;;
54921;SDS011;40824;45.116;21.296;2023-12-20T12:53:06;28.55;;;19.80;;
54921;SDS011;40824;45.116;21.296;2023-12-20T12:55:33;31.70;;;20.30;;
54921;SDS011;40824;45.116;21.296;2023-12-20T12:57:59;28.27;;;19.65;;
54921;SDS011;40824;45.116;21.296;2023-12-20T13:00:25;49.47;;;23.00;;
54921;SDS011;40824;45.116;21.296;2023-12-20T13:02:51;30.77;;;20.48;;
54921;SDS011;40824;45.116;21.296;2023-12-20T13:05:18;26.70;;;20.67;;
54921;SDS011;40824;45.116;21.296;2023-12-20T13:07:44;31.60;;;22.10;;
54921;SDS011;40824;45.116;21.296;2023-12-20T13:10:10;30.98;;;22.13;;
54921;SDS011;40824;45.116;21.296;2023-12-20T13:12:37;34.92;;;24.38;;
54921;SDS011;40824;45.116;21.296;2023-12-20T13:15:03;32.42;;;24.50;;
54921;SDS011;40824;45.116;21.296;2023-12-20T13:17:29;31.88;;;24.40;;
54921;SDS011;40824;45.116;21.296;2023-12-20T13:19:58;34.78;;;25.05;;
54921;SDS011;40824;45.116;21.296;2023-12-20T13:22:24;31.98;;;23.20;;
54921;SDS011;40824;45.116;21.296;2023-12-20T13:24:50;32.88;;;23.67;;
54921;SDS011;40824;45.116;21.296;2023-12-20T13:27:17;45.72;;;34.30;;
54921;SDS011;40824;45.116;21.296;2023-12-20T13:29:45;56.50;;;44.38;;
54921;SDS011;40824;45.116;21.296;2023-12-20T13:32:11;58.97;;;45.75;;
54921;SDS011;40824;45.116;21.296;2023-12-20T13:34:37;67.38;;;50.75;;
54921;SDS011;40824;45.116;21.296;2023-12-20T13:37:03;69.25;;;51.95;;
54921;SDS011;40824;45.116;21.296;2023-12-20T13:39:30;72.13;;;53.58;;
54921;SDS011;40824;45.116;21.296;2023-12-20T13:41:56;68.55;;;54.35;;
54921;SDS011;40824;45.116;21.296;2023-12-20T13:44:22;66.65;;;53.58;;
54921;SDS011;40824;45.116;21.296;2023-12-20T13:46:49;73.60;;;55.83;;
54921;SDS011;40824;45.116;21.296;2023-12-20T13:49:15;78.50;;;59.10;;
54921;SDS011;40824;45.116;21.296;2023-12-20T13:51:42;80.97;;;61.83;;
54921;SDS011;40824;45.116;21.296;2023-12-20T13:54:08;82.50;;;63.15;;
54921;SDS011;40824;45.116;21.296;2023-12-20T13:56:36;85.85;;;66.88;;
54921;SDS011;40824;45.116;21.296;2023-12-20T13:59:02;85.25;;;65.13;;
54921;SDS011;40824;45.116;21.296;2023-12-20T14:01:28;86.97;;;66.95;;
54921;SDS011;40824;45.116;21.296;2023-12-20T14:03:54;81.10;;;64.90;;
54921;SDS011;40824;45.116;21.296;2023-12-20T14:06:23;84.63;;;65.65;;
54921;SDS011;40824;45.116;21.296;2023-12-20T14:08:49;86.20;;;66.85;;
54921;SDS011;40824;45.116;21.296;2023-12-20T14:11:15;85.53;;;66.82;;
54921;SDS011;40824;45.116;21.296;2023-12-20T14:13:41;85.95;;;68.28;;
54921;SDS011;40824;45.116;21.296;2023-12-20T14:16:10;91.13;;;71.38;;
54921;SDS011;40824;45.116;21.296;2023-12-20T14:18:36;90.47;;;68.63;;
54921;SDS011;40824;45.116;21.296;2023-12-20T14:21:02;92.05;;;68.68;;
54921;SDS011;40824;45.116;21.296;2023-12-20T14:23:28;87.65;;;68.88;;
54921;SDS011;40824;45.116;21.296;2023-12-20T14:25:54;88.28;;;67.50;;
54921;SDS011;40824;45.116;21.296;2023-12-20T14:28:23;89.28;;;70.60;;
54921;SDS011;40824;45.116;21.296;2023-12-20T14:30:49;90.00;;;70.70;;
54921;SDS011;40824;45.116;21.296;2023-12-20T14:33:15;92.60;;;70.60;;